sensor_id;sensor_type;location;lat;lon;timestamp;pressure;altitude;pressure_sealevel;temperature;humidity
66857;BME280;53766;50.280;19.160;2024-02-14T00:01:33;98960.88;;;16.95;52.20
66857;BME280;53766;50.280;19.160;2024-02-14T00:04:00;98965.41;;;16.95;52.20
66857;BME280;53766;50.280;19.160;2024-02-14T00:06:28;98968.06;;;16.95;52.23
66857;BME280;53766;50.280;19.160;2024-02-14T00:08:56;98970.72;;;16.95;52.22
66857;BME280;53766;50.280;19.160;2024-02-14T00:11:23;98967.25;;;16.94;52.20
66857;BME280;53766;50.280;19.160;2024-02-14T00:13:51;98977.03;;;16.94;52.06
66857;BME280;53766;50.280;19.160;2024-02-14T00:16:18;98973.56;;;16.93;52.08
66857;BME280;53766;50.280;19.160;2024-02-14T00:18:46;98968.41;;;16.92;52.18
66857;BME280;53766;50.280;19.160;2024-02-14T00:21:14;98977.22;;;16.92;52.12
66857;BME280;53766;50.280;19.160;2024-02-14T00:23:41;98976.38;;;16.92;52.13
66857;BME280;53766;50.280;19.160;2024-02-14T00:26:11;98974.75;;;16.91;52.07
66857;BME280;53766;50.280;19.160;2024-02-14T00:28:39;98980.06;;;16.91;52.16
66857;BME280;53766;50.280;19.160;2024-02-14T00:31:06;98971.44;;;16.89;52.23
66857;BME280;53766;50.280;19.160;2024-02-14T00:33:34;98974.75;;;16.91;52.11
66857;BME280;53766;50.280;19.160;2024-02-14T00:36:02;98974.75;;;16.91;52.06
66857;BME280;53766;50.280;19.160;2024-02-14T00:38:29;98980.06;;;16.91;52.02
66857;BME280;53766;50.280;19.160;2024-02-14T00:40:57;98980.06;;;16.91;52.01
66857;BME280;53766;50.280;19.160;2024-02-14T00:43:25;98984.56;;;16.90;52.00
66857;BME280;53766;50.280;19.160;2024-02-14T00:45:53;98988.22;;;16.89;52.05
66857;BME280;53766;50.280;19.160;2024-02-14T00:48:20;98992.72;;;16.89;51.93
66857;BME280;53766;50.280;19.160;2024-02-14T00:50:48;98988.22;;;16.89;52.18
66857;BME280;53766;50.280;19.160;2024-02-14T00:53:16;98995.38;;;16.89;51.97
66857;BME280;53766;50.280;19.160;2024-02-14T00:55:44;98989.03;;;16.90;51.96
66857;BME280;53766;50.280;19.160;2024-02-14T00:58:11;98993.53;;;16.89;52.01
66857;BME280;53766;50.280;19.160;2024-02-14T01:00:39;98987.41;;;16.89;51.96
66857;BME280;53766;50.280;19.160;2024-02-14T01:03:07;98984.75;;;16.89;51.98
66857;BME280;53766;50.280;19.160;2024-02-14T01:05:35;98987.41;;;16.89;52.03
66857;BME280;53766;50.280;19.160;2024-02-14T01:08:04;98986.56;;;16.88;52.06
66857;BME280;53766;50.280;19.160;2024-02-14T01:10:32;98985.75;;;16.88;52.01
66857;BME280;53766;50.280;19.160;2024-02-14T01:13:00;98980.44;;;16.88;51.90
66857;BME280;53766;50.280;19.160;2024-02-14T01:15:27;98980.22;;;16.89;52.01
66857;BME280;53766;50.280;19.160;2024-02-14T01:17:55;98970.63;;;16.88;51.95
66857;BME280;53766;50.280;19.160;2024-02-14T01:20:23;98975.13;;;16.88;51.91
66857;BME280;53766;50.280;19.160;2024-02-14T01:22:50;98978.75;;;16.86;51.93
66857;BME280;53766;50.280;19.160;2024-02-14T01:25:18;98968.94;;;16.87;51.97
66857;BME280;53766;50.280;19.160;2024-02-14T01:27:45;98976.75;;;16.89;51.91
66857;BME280;53766;50.280;19.160;2024-02-14T01:30:13;98968.94;;;16.87;51.81
66857;BME280;53766;50.280;19.160;2024-02-14T01:32:42;98964.47;;;16.88;51.88
66857;BME280;53766;50.280;19.160;2024-02-14T01:35:09;98965.47;;;16.86;51.92
66857;BME280;53766;50.280;19.160;2024-02-14T01:37:37;98962.00;;;16.86;52.03
66857;BME280;53766;50.280;19.160;2024-02-14T01:40:06;98966.50;;;16.85;51.90
66857;BME280;53766;50.280;19.160;2024-02-14T01:42:34;98966.50;;;16.85;52.02
66857;BME280;53766;50.280;19.160;2024-02-14T01:45:02;98962.00;;;16.86;51.96
66857;BME280;53766;50.280;19.160;2024-02-14T01:47:30;98961.16;;;16.85;51.92
66857;BME280;53766;50.280;19.160;2024-02-14T01:50:00;98964.00;;;16.84;52.00
66857;BME280;53766;50.280;19.160;2024-02-14T01:52:28;98963.81;;;16.85;51.92
66857;BME280;53766;50.280;19.160;2024-02-14T01:54:56;98965.84;;;16.83;51.99
66857;BME280;53766;50.280;19.160;2024-02-14T01:57:24;98971.16;;;16.83;52.00
66857;BME280;53766;50.280;19.160;2024-02-14T01:59:53;98963.19;;;16.83;51.84
66857;BME280;53766;50.280;19.160;2024-02-14T02:02:22;98960.53;;;16.83;51.81
66857;BME280;53766;50.280;19.160;2024-02-14T02:04:49;98968.50;;;16.83;51.90
66857;BME280;53766;50.280;19.160;2024-02-14T02:07:18;98964.00;;;16.84;51.95
66857;BME280;53766;50.280;19.160;2024-02-14T02:09:47;98961.50;;;16.82;51.81
66857;BME280;53766;50.280;19.160;2024-02-14T02:12:14;98966.84;;;16.82;51.92
66857;BME280;53766;50.280;19.160;2024-02-14T02:14:42;98965.19;;;16.81;51.85
66857;BME280;53766;50.280;19.160;2024-02-14T02:17:10;98970.50;;;16.81;51.79
66857;BME280;53766;50.280;19.160;2024-02-14T02:19:39;98964.34;;;16.81;51.77
66857;BME280;53766;50.280;19.160;2024-02-14T02:22:07;98966.00;;;16.82;51.92
66857;BME280;53766;50.280;19.160;2024-02-14T02:24:35;98969.50;;;16.82;51.95
66857;BME280;53766;50.280;19.160;2024-02-14T02:27:03;98963.53;;;16.80;51.79
66857;BME280;53766;50.280;19.160;2024-02-14T02:29:31;98972.50;;;16.79;51.86
66857;BME280;53766;50.280;19.160;2024-02-14T02:31:59;98963.53;;;16.80;51.72
66857;BME280;53766;50.280;19.160;2024-02-14T02:34:27;98961.84;;;16.79;51.83
66857;BME280;53766;50.280;19.160;2024-02-14T02:36:55;98961.84;;;16.79;51.78
66857;BME280;53766;50.280;19.160;2024-02-14T02:39:24;98971.50;;;16.80;51.84
66857;BME280;53766;50.280;19.160;2024-02-14T02:41:52;98970.69;;;16.80;51.81
66857;BME280;53766;50.280;19.160;2024-02-14T02:44:22;98972.50;;;16.79;51.78
66857;BME280;53766;50.280;19.160;2024-02-14T02:46:50;98969.00;;;16.79;51.87
66857;BME280;53766;50.280;19.160;2024-02-14T02:49:18;98967.19;;;16.79;51.90
66857;BME280;53766;50.280;19.160;2024-02-14T02:51:45;98970.81;;;16.78;51.92
66857;BME280;53766;50.280;19.160;2024-02-14T02:54:14;98972.66;;;16.78;51.76
66857;BME280;53766;50.280;19.160;2024-02-14T02:56:41;98975.31;;;16.78;51.93
66857;BME280;53766;50.280;19.160;2024-02-14T02:59:09;98977.16;;;16.77;51.88
66857;BME280;53766;50.280;19.160;2024-02-14T03:01:37;98979.00;;;16.77;51.85
66857;BME280;53766;50.280;19.160;2024-02-14T03:04:04;98974.50;;;16.77;51.89
66857;BME280;53766;50.280;19.160;2024-02-14T03:06:32;98985.16;;;16.77;51.87
66857;BME280;53766;50.280;19.160;2024-02-14T03:09:00;98980.66;;;16.78;51.84
66857;BME280;53766;50.280;19.160;2024-02-14T03:11:28;98981.47;;;16.78;51.87
66857;BME280;53766;50.280;19.160;2024-02-14T03:13:55;98984.31;;;16.77;51.82
66857;BME280;53766;50.280;19.160;2024-02-14T03:16:23;98987.81;;;16.77;51.81
66857;BME280;53766;50.280;19.160;2024-02-14T03:18:52;99001.09;;;16.77;51.82
66857;BME280;53766;50.280;19.160;2024-02-14T03:21:21;98988.78;;;16.76;51.80
66857;BME280;53766;50.280;19.160;2024-02-14T03:23:50;98987.81;;;16.77;51.76
66857;BME280;53766;50.280;19.160;2024-02-14T03:26:17;98984.31;;;16.77;51.90
66857;BME280;53766;50.280;19.160;2024-02-14T03:28:45;98984.50;;;16.75;51.52
66857;BME280;53766;50.280;19.160;2024-02-14T03:31:13;98992.47;;;16.75;51.75
66857;BME280;53766;50.280;19.160;2024-02-14T03:33:42;98995.13;;;16.75;51.80
66857;BME280;53766;50.280;19.160;2024-02-14T03:36:11;98996.97;;;16.75;51.79
66857;BME280;53766;50.280;19.160;2024-02-14T03:38:38;98996.13;;;16.74;51.83
66857;BME280;53766;50.280;19.160;2024-02-14T03:41:07;99003.13;;;16.75;51.81
66857;BME280;53766;50.280;19.160;2024-02-14T03:43:35;99001.44;;;16.74;51.80
66857;BME280;53766;50.280;19.160;2024-02-14T03:46:03;99008.44;;;16.75;51.91
66857;BME280;53766;50.280;19.160;2024-02-14T03:48:32;99005.94;;;16.74;51.82
66857;BME280;53766;50.280;19.160;2024-02-14T03:51:00;99015.75;;;16.73;51.97
66857;BME280;53766;50.280;19.160;2024-02-14T03:53:30;99014.09;;;16.72;51.80
66857;BME280;53766;50.280;19.160;2024-02-14T03:56:00;99014.94;;;16.73;51.83
66857;BME280;53766;50.280;19.160;2024-02-14T03:58:28;99003.47;;;16.72;51.81
66857;BME280;53766;50.280;19.160;2024-02-14T04:00:56;99003.47;;;16.72;51.89
66857;BME280;53766;50.280;19.160;2024-02-14T04:03:24;99000.78;;;16.72;51.80
66857;BME280;53766;50.280;19.160;2024-02-14T04:05:52;99014.94;;;16.73;51.85
66857;BME280;53766;50.280;19.160;2024-02-14T04:08:20;99014.09;;;16.72;51.93
66857;BME280;53766;50.280;19.160;2024-02-14T04:10:47;99015.94;;;16.72;51.76
66857;BME280;53766;50.280;19.160;2024-02-14T04:13:26;99014.09;;;16.72;51.84
66857;BME280;53766;50.280;19.160;2024-02-14T04:15:53;99013.28;;;16.72;51.72
66857;BME280;53766;50.280;19.160;2024-02-14T04:18:21;99013.28;;;16.72;51.82
66857;BME280;53766;50.280;19.160;2024-02-14T04:20:48;99014.09;;;16.72;51.71
66857;BME280;53766;50.280;19.160;2024-02-14T04:23:16;99023.09;;;16.71;51.76
66857;BME280;53766;50.280;19.160;2024-02-14T04:25:44;99018.78;;;16.70;51.78
66857;BME280;53766;50.280;19.160;2024-02-14T04:28:11;99026.78;;;16.70;51.67
66857;BME280;53766;50.280;19.160;2024-02-14T04:30:39;99026.78;;;16.70;51.83
66857;BME280;53766;50.280;19.160;2024-02-14T04:33:09;99032.09;;;16.70;51.77
66857;BME280;53766;50.280;19.160;2024-02-14T04:35:41;99033.72;;;16.71;51.66
66857;BME280;53766;50.280;19.160;2024-02-14T04:38:08;99024.72;;;16.72;51.53
66857;BME280;53766;50.280;19.160;2024-02-14T04:40:36;99033.72;;;16.71;51.42
66857;BME280;53766;50.280;19.160;2024-02-14T04:43:05;99029.44;;;16.70;51.44
66857;BME280;53766;50.280;19.160;2024-02-14T04:45:32;99026.78;;;16.70;51.38
66857;BME280;53766;50.280;19.160;2024-02-14T04:48:00;99024.13;;;16.70;51.48
66857;BME280;53766;50.280;19.160;2024-02-14T04:50:27;99027.75;;;16.69;51.29
66857;BME280;53766;50.280;19.160;2024-02-14T04:52:57;99028.78;;;16.68;51.28
66857;BME280;53766;50.280;19.160;2024-02-14T04:55:25;99023.47;;;16.68;51.38
66857;BME280;53766;50.280;19.160;2024-02-14T04:57:52;99022.44;;;16.69;51.27
66857;BME280;53766;50.280;19.160;2024-02-14T05:00:20;99023.47;;;16.68;51.07
66857;BME280;53766;50.280;19.160;2024-02-14T05:02:47;99031.63;;;16.66;51.20
66857;BME280;53766;50.280;19.160;2024-02-14T05:05:15;99027.13;;;16.67;51.14
66857;BME280;53766;50.280;19.160;2024-02-14T05:07:43;99029.94;;;16.65;51.22
66857;BME280;53766;50.280;19.160;2024-02-14T05:10:10;99026.28;;;16.66;50.98
66857;BME280;53766;50.280;19.160;2024-02-14T05:12:40;99030.78;;;16.66;51.09
66857;BME280;53766;50.280;19.160;2024-02-14T05:15:08;99029.13;;;16.65;51.09
66857;BME280;53766;50.280;19.160;2024-02-14T05:17:36;99036.13;;;16.66;51.14
66857;BME280;53766;50.280;19.160;2024-02-14T05:20:05;99036.13;;;16.66;51.17
66857;BME280;53766;50.280;19.160;2024-02-14T05:22:37;99029.94;;;16.65;51.39
66857;BME280;53766;50.280;19.160;2024-02-14T05:25:05;99034.44;;;16.65;51.43
66857;BME280;53766;50.280;19.160;2024-02-14T05:27:35;99029.13;;;16.65;51.40
66857;BME280;53766;50.280;19.160;2024-02-14T05:30:04;99036.28;;;16.64;51.68
66857;BME280;53766;50.280;19.160;2024-02-14T05:32:33;99031.78;;;16.65;51.99
66857;BME280;53766;50.280;19.160;2024-02-14T05:35:01;99024.81;;;16.64;52.22
66857;BME280;53766;50.280;19.160;2024-02-14T05:37:29;99030.97;;;16.64;52.24
66857;BME280;53766;50.280;19.160;2024-02-14T05:39:56;99034.44;;;16.65;52.36
66857;BME280;53766;50.280;19.160;2024-02-14T05:42:24;99029.13;;;16.65;52.19
66857;BME280;53766;50.280;19.160;2024-02-14T05:44:51;99033.63;;;16.64;52.30
66857;BME280;53766;50.280;19.160;2024-02-14T05:47:19;99034.44;;;16.65;52.30
66857;BME280;53766;50.280;19.160;2024-02-14T05:49:47;99039.75;;;16.65;52.35
66857;BME280;53766;50.280;19.160;2024-02-14T05:52:14;99039.75;;;16.65;52.19
66857;BME280;53766;50.280;19.160;2024-02-14T05:54:43;99041.44;;;16.66;52.23
66857;BME280;53766;50.280;19.160;2024-02-14T05:57:10;99047.56;;;16.66;52.33
66857;BME280;53766;50.280;19.160;2024-02-14T05:59:38;99043.25;;;16.65;52.44
66857;BME280;53766;50.280;19.160;2024-02-14T06:02:06;99045.91;;;16.65;52.38
66857;BME280;53766;50.280;19.160;2024-02-14T06:04:35;99045.06;;;16.65;52.59
66857;BME280;53766;50.280;19.160;2024-02-14T06:07:03;99045.06;;;16.65;52.62
66857;BME280;53766;50.280;19.160;2024-02-14T06:09:33;99047.75;;;16.65;52.60
66857;BME280;53766;50.280;19.160;2024-02-14T06:12:01;99054.06;;;16.64;52.67
66857;BME280;53766;50.280;19.160;2024-02-14T06:14:28;99058.38;;;16.65;52.66
66857;BME280;53766;50.280;19.160;2024-02-14T06:16:58;99053.06;;;16.65;52.65
66857;BME280;53766;50.280;19.160;2024-02-14T06:19:25;99050.41;;;16.65;52.77
66857;BME280;53766;50.280;19.160;2024-02-14T06:21:53;99059.41;;;16.64;52.81
66857;BME280;53766;50.280;19.160;2024-02-14T06:24:21;99064.72;;;16.64;52.86
66857;BME280;53766;50.280;19.160;2024-02-14T06:26:49;99056.75;;;16.64;52.69
66857;BME280;53766;50.280;19.160;2024-02-14T06:29:16;99056.75;;;16.64;52.67
66857;BME280;53766;50.280;19.160;2024-02-14T06:31:44;99064.72;;;16.64;52.63
66857;BME280;53766;50.280;19.160;2024-02-14T06:34:12;99068.19;;;16.64;52.72
66857;BME280;53766;50.280;19.160;2024-02-14T06:36:40;99071.69;;;16.65;52.70
66857;BME280;53766;50.280;19.160;2024-02-14T06:39:07;99078.00;;;16.64;52.60
66857;BME280;53766;50.280;19.160;2024-02-14T06:41:35;99069.19;;;16.63;52.77
66857;BME280;53766;50.280;19.160;2024-02-14T06:44:04;99070.03;;;16.64;52.82
66857;BME280;53766;50.280;19.160;2024-02-14T06:46:32;99072.69;;;16.64;52.87
66857;BME280;53766;50.280;19.160;2024-02-14T06:48:59;99077.16;;;16.63;52.80
66857;BME280;53766;50.280;19.160;2024-02-14T06:51:27;99068.38;;;16.63;52.74
66857;BME280;53766;50.280;19.160;2024-02-14T06:53:54;99068.38;;;16.63;52.76
66857;BME280;53766;50.280;19.160;2024-02-14T06:56:22;99066.53;;;16.63;52.80
66857;BME280;53766;50.280;19.160;2024-02-14T06:58:49;99076.16;;;16.64;52.73
66857;BME280;53766;50.280;19.160;2024-02-14T07:01:20;99070.03;;;16.64;52.74
66857;BME280;53766;50.280;19.160;2024-02-14T07:03:52;99073.50;;;16.64;52.76
66857;BME280;53766;50.280;19.160;2024-02-14T07:06:20;99076.16;;;16.64;52.70
66857;BME280;53766;50.280;19.160;2024-02-14T07:08:48;99080.66;;;16.64;52.74
66857;BME280;53766;50.280;19.160;2024-02-14T07:11:16;99083.34;;;16.64;52.72
66857;BME280;53766;50.280;19.160;2024-02-14T07:13:44;99078.00;;;16.64;52.52
66857;BME280;53766;50.280;19.160;2024-02-14T07:16:12;99077.00;;;16.65;52.61
66857;BME280;53766;50.280;19.160;2024-02-14T07:18:40;99074.34;;;16.65;52.40
66857;BME280;53766;50.280;19.160;2024-02-14T07:21:08;99066.34;;;16.65;52.69
66857;BME280;53766;50.280;19.160;2024-02-14T07:23:35;99080.66;;;16.64;52.53
66857;BME280;53766;50.280;19.160;2024-02-14T07:26:03;99074.34;;;16.65;52.72
66857;BME280;53766;50.280;19.160;2024-02-14T07:28:31;99077.00;;;16.65;52.46
66857;BME280;53766;50.280;19.160;2024-02-14T07:30:59;99076.00;;;16.66;52.39
66857;BME280;53766;50.280;19.160;2024-02-14T07:33:27;99078.66;;;16.66;52.39
66857;BME280;53766;50.280;19.160;2024-02-14T07:35:55;99084.81;;;16.66;52.43
66857;BME280;53766;50.280;19.160;2024-02-14T07:38:22;99069.66;;;16.67;52.26
66857;BME280;53766;50.280;19.160;2024-02-14T07:40:50;99072.31;;;16.67;52.21
66857;BME280;53766;50.280;19.160;2024-02-14T07:43:17;99071.34;;;16.68;52.28
66857;BME280;53766;50.280;19.160;2024-02-14T07:45:45;99070.31;;;16.69;52.19
66857;BME280;53766;50.280;19.160;2024-02-14T07:48:12;99076.66;;;16.68;52.25
66857;BME280;53766;50.280;19.160;2024-02-14T07:50:40;99076.47;;;16.70;52.13
66857;BME280;53766;50.280;19.160;2024-02-14T07:53:07;99080.78;;;16.71;52.15
66857;BME280;53766;50.280;19.160;2024-02-14T07:55:35;99076.28;;;16.71;52.04
66857;BME280;53766;50.280;19.160;2024-02-14T07:58:03;99076.28;;;16.71;52.12
66857;BME280;53766;50.280;19.160;2024-02-14T08:00:31;99083.25;;;16.72;52.07
66857;BME280;53766;50.280;19.160;2024-02-14T08:02:58;99082.25;;;16.73;51.86
66857;BME280;53766;50.280;19.160;2024-02-14T08:05:26;99074.28;;;16.73;51.97
66857;BME280;53766;50.280;19.160;2024-02-14T08:07:54;99081.25;;;16.74;51.95
66857;BME280;53766;50.280;19.160;2024-02-14T08:10:21;99088.22;;;16.75;51.89
66857;BME280;53766;50.280;19.160;2024-02-14T08:12:49;99082.09;;;16.75;51.72
66857;BME280;53766;50.280;19.160;2024-02-14T08:15:17;99087.88;;;16.78;51.77
66857;BME280;53766;50.280;19.160;2024-02-14T08:17:44;99085.22;;;16.78;51.67
66857;BME280;53766;50.280;19.160;2024-02-14T08:20:14;99087.88;;;16.78;51.69
66857;BME280;53766;50.280;19.160;2024-02-14T08:22:42;99082.53;;;16.78;51.80
66857;BME280;53766;50.280;19.160;2024-02-14T08:25:09;99084.22;;;16.79;51.82
66857;BME280;53766;50.280;19.160;2024-02-14T08:27:37;99089.38;;;16.81;51.57
66857;BME280;53766;50.280;19.160;2024-02-14T08:30:04;99089.38;;;16.81;51.71
66857;BME280;53766;50.280;19.160;2024-02-14T08:32:34;99092.03;;;16.81;51.54
66857;BME280;53766;50.280;19.160;2024-02-14T08:35:01;99084.91;;;16.81;51.63
66857;BME280;53766;50.280;19.160;2024-02-14T08:37:29;99088.38;;;16.82;51.48
66857;BME280;53766;50.280;19.160;2024-02-14T08:39:57;99086.53;;;16.82;51.65
66857;BME280;53766;50.280;19.160;2024-02-14T08:42:24;99081.22;;;16.82;51.45
66857;BME280;53766;50.280;19.160;2024-02-14T08:44:52;99087.19;;;16.84;51.48
66857;BME280;53766;50.280;19.160;2024-02-14T08:47:19;99085.34;;;16.85;51.43
66857;BME280;53766;50.280;19.160;2024-02-14T08:49:47;99086.19;;;16.85;51.46
66857;BME280;53766;50.280;19.160;2024-02-14T08:52:14;99083.53;;;16.85;51.29
66857;BME280;53766;50.280;19.160;2024-02-14T08:54:42;99083.53;;;16.85;51.32
66857;BME280;53766;50.280;19.160;2024-02-14T08:57:09;99085.19;;;16.86;51.26
66857;BME280;53766;50.280;19.160;2024-02-14T08:59:37;99079.88;;;16.86;51.33
66857;BME280;53766;50.280;19.160;2024-02-14T09:02:05;99081.53;;;16.88;51.29
66857;BME280;53766;50.280;19.160;2024-02-14T09:04:33;99078.03;;;16.87;51.38
66857;BME280;53766;50.280;19.160;2024-02-14T09:07:00;99072.53;;;16.89;51.28
66857;BME280;53766;50.280;19.160;2024-02-14T09:09:28;99075.84;;;16.91;51.20
66857;BME280;53766;50.280;19.160;2024-02-14T09:11:56;99070.53;;;16.91;51.26
66857;BME280;53766;50.280;19.160;2024-02-14T09:14:24;99068.84;;;16.90;51.09
66857;BME280;53766;50.280;19.160;2024-02-14T09:16:53;99067.88;;;16.91;51.17
66857;BME280;53766;50.280;19.160;2024-02-14T09:19:20;99071.19;;;16.93;51.18
66857;BME280;53766;50.280;19.160;2024-02-14T09:21:49;99075.47;;;16.94;51.18
66857;BME280;53766;50.280;19.160;2024-02-14T09:24:16;99071.00;;;16.94;51.09
66857;BME280;53766;50.280;19.160;2024-02-14T09:26:44;99075.47;;;16.94;51.20
66857;BME280;53766;50.280;19.160;2024-02-14T09:29:12;99081.66;;;16.94;51.05
66857;BME280;53766;50.280;19.160;2024-02-14T09:31:39;99077.97;;;16.95;51.07
66857;BME280;53766;50.280;19.160;2024-02-14T09:34:07;99075.97;;;16.97;51.14
66857;BME280;53766;50.280;19.160;2024-02-14T09:36:35;99079.63;;;16.96;51.10
66857;BME280;53766;50.280;19.160;2024-02-14T09:39:02;99075.97;;;16.97;50.97
66857;BME280;53766;50.280;19.160;2024-02-14T09:41:41;99081.28;;;16.97;51.06
66857;BME280;53766;50.280;19.160;2024-02-14T09:44:10;99075.13;;;16.97;51.13
66857;BME280;53766;50.280;19.160;2024-02-14T09:46:38;99074.13;;;16.98;51.08
66857;BME280;53766;50.280;19.160;2024-02-14T09:49:08;99078.06;;;17.02;51.02
66857;BME280;53766;50.280;19.160;2024-02-14T09:51:37;99073.78;;;17.01;51.03
66857;BME280;53766;50.280;19.160;2024-02-14T09:54:06;99074.59;;;17.01;51.10
66857;BME280;53766;50.280;19.160;2024-02-14T09:56:35;99070.91;;;17.02;50.98
66857;BME280;53766;50.280;19.160;2024-02-14T09:59:02;99069.28;;;17.01;51.13
66857;BME280;53766;50.280;19.160;2024-02-14T10:01:31;99064.78;;;17.02;50.99
66857;BME280;53766;50.280;19.160;2024-02-14T10:03:58;99058.47;;;17.03;50.98
66857;BME280;53766;50.280;19.160;2024-02-14T10:06:26;99058.47;;;17.03;51.13
66857;BME280;53766;50.280;19.160;2024-02-14T10:08:54;99054.78;;;17.04;50.85
66857;BME280;53766;50.280;19.160;2024-02-14T10:11:31;99056.44;;;17.05;50.87
66857;BME280;53766;50.280;19.160;2024-02-14T10:14:00;99052.75;;;17.06;50.92
66857;BME280;53766;50.280;19.160;2024-02-14T10:16:32;99054.78;;;17.04;50.91
66857;BME280;53766;50.280;19.160;2024-02-14T10:18:59;99052.94;;;17.04;50.99
66857;BME280;53766;50.280;19.160;2024-02-14T10:21:28;99056.44;;;17.05;50.92
66857;BME280;53766;50.280;19.160;2024-02-14T10:23:59;99051.13;;;17.05;50.87
66857;BME280;53766;50.280;19.160;2024-02-14T10:26:28;99052.13;;;17.04;50.91
66857;BME280;53766;50.280;19.160;2024-02-14T10:28:57;99047.25;;;17.08;50.79
66857;BME280;53766;50.280;19.160;2024-02-14T10:31:25;99044.78;;;17.06;50.70
66857;BME280;53766;50.280;19.160;2024-02-14T10:33:56;99041.28;;;17.05;50.82
66857;BME280;53766;50.280;19.160;2024-02-14T10:36:24;99039.47;;;17.06;50.96
66857;BME280;53766;50.280;19.160;2024-02-14T10:38:53;99047.06;;;17.09;50.80
66857;BME280;53766;50.280;19.160;2024-02-14T10:41:21;99049.06;;;17.07;50.79
66857;BME280;53766;50.280;19.160;2024-02-14T10:43:48;99038.44;;;17.07;50.74
66857;BME280;53766;50.280;19.160;2024-02-14T10:46:20;99037.28;;;17.10;50.77
66857;BME280;53766;50.280;19.160;2024-02-14T10:48:53;99035.59;;;17.09;50.83
66857;BME280;53766;50.280;19.160;2024-02-14T10:51:23;99020.44;;;17.09;50.69
66857;BME280;53766;50.280;19.160;2024-02-14T10:53:53;99023.75;;;17.11;50.79
66857;BME280;53766;50.280;19.160;2024-02-14T10:56:24;99024.13;;;17.08;50.78
66857;BME280;53766;50.280;19.160;2024-02-14T10:58:57;99009.81;;;17.09;50.73
66857;BME280;53766;50.280;19.160;2024-02-14T11:01:28;99008.16;;;17.08;50.76
66857;BME280;53766;50.280;19.160;2024-02-14T11:04:00;99012.28;;;17.11;50.68
66857;BME280;53766;50.280;19.160;2024-02-14T11:06:28;99009.47;;;17.12;50.75
66857;BME280;53766;50.280;19.160;2024-02-14T11:09:03;99011.47;;;17.10;50.75
66857;BME280;53766;50.280;19.160;2024-02-14T11:11:40;99006.16;;;17.10;50.80
66857;BME280;53766;50.280;19.160;2024-02-14T11:14:07;99017.63;;;17.11;50.78
66857;BME280;53766;50.280;19.160;2024-02-14T11:16:37;99010.66;;;17.10;50.62
66857;BME280;53766;50.280;19.160;2024-02-14T11:19:10;99006.97;;;17.11;50.81
66857;BME280;53766;50.280;19.160;2024-02-14T11:21:47;99005.34;;;17.10;50.63
66857;BME280;53766;50.280;19.160;2024-02-14T11:24:17;99002.47;;;17.11;50.65
66857;BME280;53766;50.280;19.160;2024-02-14T11:26:47;99002.47;;;17.11;50.44
66857;BME280;53766;50.280;19.160;2024-02-14T11:29:15;99003.97;;;17.14;50.65
66857;BME280;53766;50.280;19.160;2024-02-14T11:31:57;98996.16;;;17.12;50.67
66857;BME280;53766;50.280;19.160;2024-02-14T11:34:27;98993.13;;;17.15;50.51
66857;BME280;53766;50.280;19.160;2024-02-14T11:36:55;98990.84;;;17.12;50.54
66857;BME280;53766;50.280;19.160;2024-02-14T11:39:22;98985.50;;;17.12;50.54
66857;BME280;53766;50.280;19.160;2024-02-14T11:41:50;98989.81;;;17.13;50.62
66857;BME280;53766;50.280;19.160;2024-02-14T11:44:20;98988.16;;;17.12;50.64
66857;BME280;53766;50.280;19.160;2024-02-14T11:46:49;98983.50;;;17.14;50.59
66857;BME280;53766;50.280;19.160;2024-02-14T11:49:17;98982.69;;;17.14;50.60
66857;BME280;53766;50.280;19.160;2024-02-14T11:51:44;98973.03;;;17.13;50.62
66857;BME280;53766;50.280;19.160;2024-02-14T11:54:12;98973.84;;;17.13;50.67
66857;BME280;53766;50.280;19.160;2024-02-14T11:56:39;98976.31;;;17.15;50.78
66857;BME280;53766;50.280;19.160;2024-02-14T11:59:08;98965.84;;;17.13;50.68
66857;BME280;53766;50.280;19.160;2024-02-14T12:01:37;98969.38;;;17.14;50.62
66857;BME280;53766;50.280;19.160;2024-02-14T12:04:07;98973.84;;;17.13;50.72
66857;BME280;53766;50.280;19.160;2024-02-14T12:06:36;98966.72;;;17.14;50.63
66857;BME280;53766;50.280;19.160;2024-02-14T12:09:05;98970.19;;;17.14;50.68
66857;BME280;53766;50.280;19.160;2024-02-14T12:11:37;98957.69;;;17.15;50.67
66857;BME280;53766;50.280;19.160;2024-02-14T12:14:06;98962.00;;;17.16;50.65
66857;BME280;53766;50.280;19.160;2024-02-14T12:16:34;98954.22;;;17.14;50.80
66857;BME280;53766;50.280;19.160;2024-02-14T12:19:09;98959.34;;;17.16;50.68
66857;BME280;53766;50.280;19.160;2024-02-14T12:21:39;98957.53;;;17.16;50.68
66857;BME280;53766;50.280;19.160;2024-02-14T12:24:08;98956.50;;;17.17;50.49
66857;BME280;53766;50.280;19.160;2024-02-14T12:26:38;98953.03;;;17.17;50.68
66857;BME280;53766;50.280;19.160;2024-02-14T12:29:06;98953.84;;;17.17;50.70
66857;BME280;53766;50.280;19.160;2024-02-14T12:31:35;98950.34;;;17.17;50.70
66857;BME280;53766;50.280;19.160;2024-02-14T12:34:04;98946.88;;;17.16;50.76
66857;BME280;53766;50.280;19.160;2024-02-14T12:36:34;98946.50;;;17.19;50.66
66857;BME280;53766;50.280;19.160;2024-02-14T12:39:03;98951.81;;;17.19;50.64
66857;BME280;53766;50.280;19.160;2024-02-14T12:41:31;98942.00;;;17.20;50.61
66857;BME280;53766;50.280;19.160;2024-02-14T12:43:59;98936.88;;;17.18;50.67
66857;BME280;53766;50.280;19.160;2024-02-14T12:46:29;98943.84;;;17.19;50.76
66857;BME280;53766;50.280;19.160;2024-02-14T12:48:58;98943.84;;;17.19;50.65
66857;BME280;53766;50.280;19.160;2024-02-14T12:51:25;98941.19;;;17.19;50.61
66857;BME280;53766;50.280;19.160;2024-02-14T12:53:56;98938.50;;;17.19;50.72
66857;BME280;53766;50.280;19.160;2024-02-14T12:56:24;98935.50;;;17.22;50.76